Terminal Aerodrome Forecast
Issued by NWS

Home | Current Version | Previous Version | Text Only | Print | Product List | Glossary On
Versions: 1 2 3 4 5 6 7 8 9 10 11 12
267
FTUS45 KGGW 261740
TAFSDY
TAF
KSDY 261740Z 2618/2718 25007KT P6SM SKC
     FM270300 VRB04KT P6SM FEW100=

USA.gov is the U.S. government's official web portal to all federal, state and local government web resources and services.